sensor_id;sensor_type;location;lat;lon;timestamp;P1;durP1;ratioP1;P2;durP2;ratioP2
23388;SDS011;11867;51.198;11.966;2022-11-15T00:02:18;20.48;;;14.40;;
23388;SDS011;11867;51.198;11.966;2022-11-15T00:07:22;21.50;;;13.55;;
23388;SDS011;11867;51.198;11.966;2022-11-15T00:12:45;17.90;;;10.95;;
23388;SDS011;11867;51.198;11.966;2022-11-15T00:17:48;20.75;;;13.63;;
23388;SDS011;11867;51.198;11.966;2022-11-15T00:22:52;20.13;;;13.70;;
23388;SDS011;11867;51.198;11.966;2022-11-15T00:27:55;22.58;;;14.02;;
23388;SDS011;11867;51.198;11.966;2022-11-15T00:33:01;24.10;;;13.73;;
23388;SDS011;11867;51.198;11.966;2022-11-15T00:38:05;21.75;;;14.18;;
23388;SDS011;11867;51.198;11.966;2022-11-15T00:43:07;21.30;;;12.70;;
23388;SDS011;11867;51.198;11.966;2022-11-15T00:48:10;23.10;;;13.75;;
23388;SDS011;11867;51.198;11.966;2022-11-15T00:53:15;20.92;;;13.80;;
23388;SDS011;11867;51.198;11.966;2022-11-15T00:58:18;19.20;;;11.23;;
23388;SDS011;11867;51.198;11.966;2022-11-15T01:03:20;18.08;;;11.77;;
23388;SDS011;11867;51.198;11.966;2022-11-15T01:08:24;18.10;;;12.02;;
23388;SDS011;11867;51.198;11.966;2022-11-15T01:13:29;16.70;;;11.60;;
23388;SDS011;11867;51.198;11.966;2022-11-15T01:18:33;17.15;;;11.68;;
23388;SDS011;11867;51.198;11.966;2022-11-15T01:23:37;16.05;;;11.65;;
23388;SDS011;11867;51.198;11.966;2022-11-15T01:28:40;13.05;;;8.95;;
23388;SDS011;11867;51.198;11.966;2022-11-15T01:33:44;13.63;;;9.23;;
23388;SDS011;11867;51.198;11.966;2022-11-15T01:38:52;16.90;;;10.85;;
23388;SDS011;11867;51.198;11.966;2022-11-15T01:43:57;15.05;;;10.63;;
23388;SDS011;11867;51.198;11.966;2022-11-15T01:49:20;17.00;;;10.85;;
23388;SDS011;11867;51.198;11.966;2022-11-15T01:54:27;18.17;;;10.95;;
23388;SDS011;11867;51.198;11.966;2022-11-15T01:59:30;13.10;;;8.23;;
23388;SDS011;11867;51.198;11.966;2022-11-15T02:04:34;15.10;;;10.32;;
23388;SDS011;11867;51.198;11.966;2022-11-15T02:09:41;16.05;;;10.63;;
23388;SDS011;11867;51.198;11.966;2022-11-15T02:14:46;14.25;;;9.65;;
23388;SDS011;11867;51.198;11.966;2022-11-15T02:25:40;17.50;;;11.38;;
23388;SDS011;11867;51.198;11.966;2022-11-15T02:30:59;15.88;;;10.93;;
23388;SDS011;11867;51.198;11.966;2022-11-15T02:36:09;17.30;;;11.38;;
23388;SDS011;11867;51.198;11.966;2022-11-15T02:41:19;16.38;;;10.60;;
23388;SDS011;11867;51.198;11.966;2022-11-15T02:46:30;16.42;;;11.27;;
23388;SDS011;11867;51.198;11.966;2022-11-15T02:51:54;14.27;;;10.18;;
23388;SDS011;11867;51.198;11.966;2022-11-15T02:56:59;18.63;;;11.43;;
23388;SDS011;11867;51.198;11.966;2022-11-15T03:02:08;14.80;;;10.73;;
23388;SDS011;11867;51.198;11.966;2022-11-15T03:07:22;17.35;;;10.82;;
23388;SDS011;11867;51.198;11.966;2022-11-15T03:12:34;16.20;;;10.55;;
23388;SDS011;11867;51.198;11.966;2022-11-15T03:17:45;15.88;;;10.48;;
23388;SDS011;11867;51.198;11.966;2022-11-15T03:22:53;15.23;;;11.27;;
23388;SDS011;11867;51.198;11.966;2022-11-15T03:27:58;15.45;;;9.82;;
23388;SDS011;11867;51.198;11.966;2022-11-15T03:33:07;16.33;;;10.43;;
23388;SDS011;11867;51.198;11.966;2022-11-15T03:38:14;16.02;;;10.07;;
23388;SDS011;11867;51.198;11.966;2022-11-15T03:43:24;17.83;;;10.40;;
23388;SDS011;11867;51.198;11.966;2022-11-15T03:48:35;14.88;;;10.00;;
23388;SDS011;11867;51.198;11.966;2022-11-15T03:53:42;13.70;;;10.20;;
23388;SDS011;11867;51.198;11.966;2022-11-15T03:58:45;14.93;;;9.90;;
23388;SDS011;11867;51.198;11.966;2022-11-15T04:03:49;15.35;;;10.40;;
23388;SDS011;11867;51.198;11.966;2022-11-15T04:08:51;10.02;;;7.50;;
23388;SDS011;11867;51.198;11.966;2022-11-15T04:13:54;12.80;;;9.15;;
23388;SDS011;11867;51.198;11.966;2022-11-15T04:18:58;17.23;;;10.35;;
23388;SDS011;11867;51.198;11.966;2022-11-15T04:24:18;18.50;;;10.15;;
23388;SDS011;11867;51.198;11.966;2022-11-15T04:29:21;15.93;;;10.40;;
23388;SDS011;11867;51.198;11.966;2022-11-15T04:34:40;14.30;;;9.95;;
23388;SDS011;11867;51.198;11.966;2022-11-15T04:39:42;11.45;;;7.68;;
23388;SDS011;11867;51.198;11.966;2022-11-15T04:44:45;14.43;;;9.52;;
23388;SDS011;11867;51.198;11.966;2022-11-15T04:49:49;13.43;;;9.30;;
23388;SDS011;11867;51.198;11.966;2022-11-15T04:54:52;13.25;;;8.65;;
23388;SDS011;11867;51.198;11.966;2022-11-15T04:59:54;10.98;;;8.50;;
23388;SDS011;11867;51.198;11.966;2022-11-15T05:04:58;12.43;;;8.30;;
23388;SDS011;11867;51.198;11.966;2022-11-15T05:10:01;8.73;;;6.72;;
23388;SDS011;11867;51.198;11.966;2022-11-15T05:15:04;14.77;;;8.95;;
23388;SDS011;11867;51.198;11.966;2022-11-15T05:20:09;13.50;;;9.03;;
23388;SDS011;11867;51.198;11.966;2022-11-15T05:25:12;12.02;;;8.27;;
23388;SDS011;11867;51.198;11.966;2022-11-15T05:30:15;12.27;;;8.88;;
23388;SDS011;11867;51.198;11.966;2022-11-15T05:35:21;10.65;;;7.70;;
23388;SDS011;11867;51.198;11.966;2022-11-15T05:40:32;11.43;;;8.52;;
23388;SDS011;11867;51.198;11.966;2022-11-15T05:50:41;12.88;;;8.30;;
23388;SDS011;11867;51.198;11.966;2022-11-15T05:55:46;12.57;;;8.85;;
23388;SDS011;11867;51.198;11.966;2022-11-15T06:00:49;14.02;;;9.18;;
23388;SDS011;11867;51.198;11.966;2022-11-15T06:05:53;10.13;;;7.88;;
23388;SDS011;11867;51.198;11.966;2022-11-15T06:10:56;12.00;;;8.10;;
23388;SDS011;11867;51.198;11.966;2022-11-15T06:15:59;12.27;;;7.95;;
23388;SDS011;11867;51.198;11.966;2022-11-15T06:21:03;14.98;;;8.90;;
23388;SDS011;11867;51.198;11.966;2022-11-15T06:26:07;11.50;;;7.90;;
23388;SDS011;11867;51.198;11.966;2022-11-15T06:31:09;13.73;;;8.05;;
23388;SDS011;11867;51.198;11.966;2022-11-15T06:36:14;13.40;;;7.93;;
23388;SDS011;11867;51.198;11.966;2022-11-15T06:41:18;13.05;;;8.10;;
23388;SDS011;11867;51.198;11.966;2022-11-15T06:46:22;19.93;;;9.13;;
23388;SDS011;11867;51.198;11.966;2022-11-15T06:51:26;14.50;;;9.98;;
23388;SDS011;11867;51.198;11.966;2022-11-15T06:56:28;10.20;;;7.18;;
23388;SDS011;11867;51.198;11.966;2022-11-15T07:01:31;14.27;;;9.00;;
23388;SDS011;11867;51.198;11.966;2022-11-15T07:06:35;17.70;;;9.18;;
23388;SDS011;11867;51.198;11.966;2022-11-15T07:11:38;17.00;;;8.18;;
23388;SDS011;11867;51.198;11.966;2022-11-15T07:16:40;12.45;;;8.18;;
23388;SDS011;11867;51.198;11.966;2022-11-15T07:21:44;12.75;;;8.70;;
23388;SDS011;11867;51.198;11.966;2022-11-15T07:26:47;16.52;;;7.65;;
23388;SDS011;11867;51.198;11.966;2022-11-15T07:31:50;15.30;;;9.20;;
23388;SDS011;11867;51.198;11.966;2022-11-15T07:36:54;13.95;;;8.38;;
23388;SDS011;11867;51.198;11.966;2022-11-15T07:42:06;16.77;;;8.65;;
23388;SDS011;11867;51.198;11.966;2022-11-15T07:47:27;16.92;;;11.15;;
23388;SDS011;11867;51.198;11.966;2022-11-15T07:52:31;14.88;;;8.93;;
23388;SDS011;11867;51.198;11.966;2022-11-15T07:57:34;19.67;;;8.50;;
23388;SDS011;11867;51.198;11.966;2022-11-15T08:02:37;17.17;;;11.70;;
23388;SDS011;11867;51.198;11.966;2022-11-15T08:07:41;16.15;;;10.13;;
23388;SDS011;11867;51.198;11.966;2022-11-15T08:12:44;17.33;;;8.13;;
23388;SDS011;11867;51.198;11.966;2022-11-15T08:17:47;13.35;;;9.23;;
23388;SDS011;11867;51.198;11.966;2022-11-15T08:22:55;13.40;;;7.57;;
23388;SDS011;11867;51.198;11.966;2022-11-15T08:27:58;16.23;;;9.32;;
23388;SDS011;11867;51.198;11.966;2022-11-15T08:33:02;15.75;;;7.65;;
23388;SDS011;11867;51.198;11.966;2022-11-15T08:38:06;17.92;;;10.35;;
23388;SDS011;11867;51.198;11.966;2022-11-15T08:43:09;19.85;;;11.35;;
23388;SDS011;11867;51.198;11.966;2022-11-15T08:48:11;18.35;;;10.57;;
23388;SDS011;11867;51.198;11.966;2022-11-15T08:53:15;17.23;;;9.90;;
23388;SDS011;11867;51.198;11.966;2022-11-15T08:58:18;17.65;;;10.23;;
23388;SDS011;11867;51.198;11.966;2022-11-15T09:03:20;14.45;;;10.07;;
23388;SDS011;11867;51.198;11.966;2022-11-15T09:08:25;16.73;;;11.63;;
23388;SDS011;11867;51.198;11.966;2022-11-15T09:13:48;15.05;;;10.77;;
23388;SDS011;11867;51.198;11.966;2022-11-15T09:18:52;16.25;;;11.10;;
23388;SDS011;11867;51.198;11.966;2022-11-15T09:23:57;14.35;;;9.55;;
23388;SDS011;11867;51.198;11.966;2022-11-15T09:29:00;14.40;;;10.70;;
23388;SDS011;11867;51.198;11.966;2022-11-15T09:34:03;17.20;;;11.10;;
23388;SDS011;11867;51.198;11.966;2022-11-15T09:39:07;16.42;;;10.40;;
23388;SDS011;11867;51.198;11.966;2022-11-15T09:44:18;12.32;;;8.40;;
23388;SDS011;11867;51.198;11.966;2022-11-15T09:49:31;7.30;;;5.30;;
23388;SDS011;11867;51.198;11.966;2022-11-15T09:54:36;5.75;;;3.83;;
23388;SDS011;11867;51.198;11.966;2022-11-15T10:00:06;7.53;;;4.47;;
23388;SDS011;11867;51.198;11.966;2022-11-15T10:05:39;6.60;;;5.20;;
23388;SDS011;11867;51.198;11.966;2022-11-15T10:10:45;5.05;;;2.80;;
23388;SDS011;11867;51.198;11.966;2022-11-15T10:16:12;3.35;;;2.88;;
23388;SDS011;11867;51.198;11.966;2022-11-15T10:21:27;5.40;;;3.33;;
23388;SDS011;11867;51.198;11.966;2022-11-15T10:26:46;4.20;;;3.10;;
23388;SDS011;11867;51.198;11.966;2022-11-15T10:31:49;3.78;;;3.17;;
23388;SDS011;11867;51.198;11.966;2022-11-15T10:36:55;3.70;;;3.13;;
23388;SDS011;11867;51.198;11.966;2022-11-15T10:42:01;4.82;;;3.33;;
23388;SDS011;11867;51.198;11.966;2022-11-15T10:47:22;10.13;;;3.47;;
23388;SDS011;11867;51.198;11.966;2022-11-15T10:52:35;5.68;;;3.45;;
23388;SDS011;11867;51.198;11.966;2022-11-15T10:57:40;5.55;;;3.97;;
23388;SDS011;11867;51.198;11.966;2022-11-15T11:02:56;4.10;;;3.57;;
23388;SDS011;11867;51.198;11.966;2022-11-15T11:08:01;5.78;;;3.60;;
23388;SDS011;11867;51.198;11.966;2022-11-15T11:13:14;6.55;;;3.25;;
23388;SDS011;11867;51.198;11.966;2022-11-15T11:18:18;4.07;;;3.50;;
23388;SDS011;11867;51.198;11.966;2022-11-15T11:23:32;3.22;;;2.92;;
23388;SDS011;11867;51.198;11.966;2022-11-15T11:28:47;4.03;;;2.33;;
23388;SDS011;11867;51.198;11.966;2022-11-15T11:33:56;3.50;;;2.30;;
23388;SDS011;11867;51.198;11.966;2022-11-15T11:39:13;3.38;;;2.28;;
23388;SDS011;11867;51.198;11.966;2022-11-15T11:44:25;3.08;;;2.45;;
23388;SDS011;11867;51.198;11.966;2022-11-15T11:49:36;2.97;;;2.10;;
23388;SDS011;11867;51.198;11.966;2022-11-15T11:54:50;3.00;;;2.40;;
23388;SDS011;11867;51.198;11.966;2022-11-15T12:00:00;2.47;;;2.20;;
23388;SDS011;11867;51.198;11.966;2022-11-15T12:05:09;6.72;;;2.40;;
23388;SDS011;11867;51.198;11.966;2022-11-15T12:10:17;2.63;;;2.28;;
23388;SDS011;11867;51.198;11.966;2022-11-15T12:15:26;3.33;;;2.25;;
23388;SDS011;11867;51.198;11.966;2022-11-15T12:20:33;3.03;;;2.25;;
23388;SDS011;11867;51.198;11.966;2022-11-15T12:25:40;2.47;;;2.20;;
23388;SDS011;11867;51.198;11.966;2022-11-15T12:30:51;3.53;;;2.13;;
23388;SDS011;11867;51.198;11.966;2022-11-15T12:35:57;3.72;;;2.30;;
23388;SDS011;11867;51.198;11.966;2022-11-15T12:46:22;3.55;;;2.30;;
23388;SDS011;11867;51.198;11.966;2022-11-15T12:57:28;5.03;;;2.33;;
23388;SDS011;11867;51.198;11.966;2022-11-15T13:02:43;5.10;;;2.47;;
23388;SDS011;11867;51.198;11.966;2022-11-15T13:07:56;2.90;;;2.53;;
23388;SDS011;11867;51.198;11.966;2022-11-15T13:13:00;5.50;;;2.33;;
23388;SDS011;11867;51.198;11.966;2022-11-15T13:23:36;3.38;;;2.53;;
23388;SDS011;11867;51.198;11.966;2022-11-15T13:28:41;2.78;;;2.40;;
23388;SDS011;11867;51.198;11.966;2022-11-15T13:33:48;3.97;;;2.58;;
23388;SDS011;11867;51.198;11.966;2022-11-15T13:38:54;3.10;;;2.33;;
23388;SDS011;11867;51.198;11.966;2022-11-15T13:44:00;4.13;;;2.88;;
23388;SDS011;11867;51.198;11.966;2022-11-15T13:49:08;4.50;;;2.60;;
23388;SDS011;11867;51.198;11.966;2022-11-15T13:54:23;4.25;;;2.80;;
23388;SDS011;11867;51.198;11.966;2022-11-15T13:59:30;3.70;;;2.50;;
23388;SDS011;11867;51.198;11.966;2022-11-15T14:04:36;5.15;;;2.72;;
23388;SDS011;11867;51.198;11.966;2022-11-15T14:09:41;5.38;;;3.03;;
23388;SDS011;11867;51.198;11.966;2022-11-15T14:14:46;8.00;;;3.60;;
23388;SDS011;11867;51.198;11.966;2022-11-15T14:19:50;4.95;;;3.70;;
23388;SDS011;11867;51.198;11.966;2022-11-15T14:30:21;4.68;;;2.95;;
23388;SDS011;11867;51.198;11.966;2022-11-15T14:35:25;6.60;;;3.83;;
23388;SDS011;11867;51.198;11.966;2022-11-15T14:40:27;4.40;;;3.50;;
23388;SDS011;11867;51.198;11.966;2022-11-15T14:45:30;5.72;;;3.42;;
23388;SDS011;11867;51.198;11.966;2022-11-15T14:50:35;5.22;;;3.65;;
23388;SDS011;11867;51.198;11.966;2022-11-15T14:55:38;10.93;;;3.72;;
23388;SDS011;11867;51.198;11.966;2022-11-15T15:00:41;8.00;;;4.20;;
23388;SDS011;11867;51.198;11.966;2022-11-15T15:05:45;9.73;;;4.00;;
23388;SDS011;11867;51.198;11.966;2022-11-15T15:10:49;11.88;;;3.83;;
23388;SDS011;11867;51.198;11.966;2022-11-15T15:15:51;7.95;;;3.58;;
23388;SDS011;11867;51.198;11.966;2022-11-15T15:20:57;14.18;;;4.80;;
23388;SDS011;11867;51.198;11.966;2022-11-15T15:26:04;9.52;;;4.45;;
23388;SDS011;11867;51.198;11.966;2022-11-15T15:31:07;8.57;;;4.45;;
23388;SDS011;11867;51.198;11.966;2022-11-15T15:36:12;20.13;;;5.90;;
23388;SDS011;11867;51.198;11.966;2022-11-15T15:41:16;22.05;;;8.70;;
23388;SDS011;11867;51.198;11.966;2022-11-15T15:46:19;14.13;;;7.55;;
23388;SDS011;11867;51.198;11.966;2022-11-15T15:51:23;18.52;;;7.40;;
23388;SDS011;11867;51.198;11.966;2022-11-15T15:56:26;9.38;;;6.35;;
23388;SDS011;11867;51.198;11.966;2022-11-15T16:01:29;7.80;;;5.63;;
23388;SDS011;11867;51.198;11.966;2022-11-15T16:06:37;12.93;;;6.47;;
23388;SDS011;11867;51.198;11.966;2022-11-15T16:11:43;15.05;;;10.02;;
23388;SDS011;11867;51.198;11.966;2022-11-15T16:16:48;16.88;;;8.40;;
23388;SDS011;11867;51.198;11.966;2022-11-15T16:21:52;21.15;;;12.48;;
23388;SDS011;11867;51.198;11.966;2022-11-15T16:26:54;15.63;;;7.20;;
23388;SDS011;11867;51.198;11.966;2022-11-15T16:31:57;14.48;;;8.85;;
23388;SDS011;11867;51.198;11.966;2022-11-15T16:37:01;18.45;;;9.63;;
23388;SDS011;11867;51.198;11.966;2022-11-15T16:42:04;23.92;;;10.13;;
23388;SDS011;11867;51.198;11.966;2022-11-15T16:47:10;18.48;;;10.88;;
23388;SDS011;11867;51.198;11.966;2022-11-15T16:52:20;18.77;;;11.45;;
23388;SDS011;11867;51.198;11.966;2022-11-15T16:57:22;17.52;;;10.70;;
23388;SDS011;11867;51.198;11.966;2022-11-15T17:02:26;12.33;;;8.67;;
23388;SDS011;11867;51.198;11.966;2022-11-15T17:07:30;12.15;;;8.55;;
23388;SDS011;11867;51.198;11.966;2022-11-15T17:12:33;9.20;;;5.82;;
23388;SDS011;11867;51.198;11.966;2022-11-15T17:17:36;10.20;;;7.37;;
23388;SDS011;11867;51.198;11.966;2022-11-15T17:22:40;14.10;;;8.23;;
23388;SDS011;11867;51.198;11.966;2022-11-15T17:27:43;15.23;;;8.10;;
23388;SDS011;11867;51.198;11.966;2022-11-15T17:32:45;13.77;;;9.23;;
23388;SDS011;11867;51.198;11.966;2022-11-15T17:37:51;16.23;;;10.07;;
23388;SDS011;11867;51.198;11.966;2022-11-15T17:42:53;17.85;;;10.95;;
23388;SDS011;11867;51.198;11.966;2022-11-15T17:47:57;16.70;;;10.70;;
23388;SDS011;11867;51.198;11.966;2022-11-15T17:53:01;21.95;;;14.07;;
23388;SDS011;11867;51.198;11.966;2022-11-15T17:58:04;19.70;;;14.20;;
23388;SDS011;11867;51.198;11.966;2022-11-15T18:03:07;24.27;;;14.65;;
23388;SDS011;11867;51.198;11.966;2022-11-15T18:08:11;20.02;;;15.55;;
23388;SDS011;11867;51.198;11.966;2022-11-15T18:13:17;20.17;;;14.90;;
23388;SDS011;11867;51.198;11.966;2022-11-15T18:18:21;19.27;;;12.60;;
23388;SDS011;11867;51.198;11.966;2022-11-15T18:23:25;19.52;;;12.10;;
23388;SDS011;11867;51.198;11.966;2022-11-15T18:28:28;15.82;;;9.88;;
23388;SDS011;11867;51.198;11.966;2022-11-15T18:33:33;15.70;;;11.50;;
23388;SDS011;11867;51.198;11.966;2022-11-15T18:38:38;17.42;;;10.88;;
23388;SDS011;11867;51.198;11.966;2022-11-15T18:43:41;13.95;;;10.00;;
23388;SDS011;11867;51.198;11.966;2022-11-15T18:48:45;15.70;;;10.57;;
23388;SDS011;11867;51.198;11.966;2022-11-15T18:53:52;26.90;;;14.45;;
23388;SDS011;11867;51.198;11.966;2022-11-15T18:58:56;26.13;;;14.98;;
23388;SDS011;11867;51.198;11.966;2022-11-15T19:04:02;21.00;;;12.73;;
23388;SDS011;11867;51.198;11.966;2022-11-15T19:09:08;26.17;;;16.33;;
23388;SDS011;11867;51.198;11.966;2022-11-15T19:14:12;26.95;;;16.63;;
23388;SDS011;11867;51.198;11.966;2022-11-15T19:19:16;19.17;;;12.18;;
23388;SDS011;11867;51.198;11.966;2022-11-15T19:24:22;22.45;;;15.40;;
23388;SDS011;11867;51.198;11.966;2022-11-15T19:29:25;19.23;;;13.50;;
23388;SDS011;11867;51.198;11.966;2022-11-15T19:34:29;27.65;;;15.95;;
23388;SDS011;11867;51.198;11.966;2022-11-15T19:39:33;22.33;;;13.27;;
23388;SDS011;11867;51.198;11.966;2022-11-15T19:44:41;17.08;;;11.10;;
23388;SDS011;11867;51.198;11.966;2022-11-15T19:49:44;17.60;;;11.38;;
23388;SDS011;11867;51.198;11.966;2022-11-15T19:54:49;12.03;;;8.10;;
23388;SDS011;11867;51.198;11.966;2022-11-15T19:59:51;16.90;;;9.65;;
23388;SDS011;11867;51.198;11.966;2022-11-15T20:04:54;12.40;;;9.52;;
23388;SDS011;11867;51.198;11.966;2022-11-15T20:09:58;16.20;;;10.65;;
23388;SDS011;11867;51.198;11.966;2022-11-15T20:20:04;14.07;;;9.63;;
23388;SDS011;11867;51.198;11.966;2022-11-15T20:25:10;16.03;;;10.90;;
23388;SDS011;11867;51.198;11.966;2022-11-15T20:30:12;16.45;;;10.75;;
23388;SDS011;11867;51.198;11.966;2022-11-15T20:35:15;19.48;;;11.07;;
23388;SDS011;11867;51.198;11.966;2022-11-15T20:40:19;16.63;;;10.75;;
23388;SDS011;11867;51.198;11.966;2022-11-15T20:45:22;17.50;;;12.15;;
23388;SDS011;11867;51.198;11.966;2022-11-15T20:50:25;18.10;;;11.63;;
23388;SDS011;11867;51.198;11.966;2022-11-15T20:55:45;19.35;;;11.93;;
23388;SDS011;11867;51.198;11.966;2022-11-15T21:00:49;18.95;;;12.23;;
23388;SDS011;11867;51.198;11.966;2022-11-15T21:05:52;19.17;;;11.63;;
23388;SDS011;11867;51.198;11.966;2022-11-15T21:10:56;15.68;;;11.63;;
23388;SDS011;11867;51.198;11.966;2022-11-15T21:16:17;18.00;;;9.35;;
23388;SDS011;11867;51.198;11.966;2022-11-15T21:21:19;13.30;;;9.05;;
23388;SDS011;11867;51.198;11.966;2022-11-15T21:26:23;13.32;;;9.95;;
23388;SDS011;11867;51.198;11.966;2022-11-15T21:31:26;12.73;;;8.80;;
23388;SDS011;11867;51.198;11.966;2022-11-15T21:36:29;18.52;;;11.52;;
23388;SDS011;11867;51.198;11.966;2022-11-15T21:41:33;15.90;;;10.00;;
23388;SDS011;11867;51.198;11.966;2022-11-15T21:46:36;15.35;;;8.27;;
23388;SDS011;11867;51.198;11.966;2022-11-15T21:51:39;12.65;;;9.05;;
23388;SDS011;11867;51.198;11.966;2022-11-15T21:56:43;14.10;;;9.88;;
23388;SDS011;11867;51.198;11.966;2022-11-15T22:01:46;14.00;;;9.25;;
23388;SDS011;11867;51.198;11.966;2022-11-15T22:07:06;17.20;;;11.38;;
23388;SDS011;11867;51.198;11.966;2022-11-15T22:12:11;17.75;;;11.57;;
23388;SDS011;11867;51.198;11.966;2022-11-15T22:17:14;17.98;;;10.38;;
23388;SDS011;11867;51.198;11.966;2022-11-15T22:22:16;14.63;;;8.77;;
23388;SDS011;11867;51.198;11.966;2022-11-15T22:27:20;16.80;;;10.15;;
23388;SDS011;11867;51.198;11.966;2022-11-15T22:32:23;15.48;;;9.48;;
23388;SDS011;11867;51.198;11.966;2022-11-15T22:37:26;12.52;;;9.00;;
23388;SDS011;11867;51.198;11.966;2022-11-15T22:42:30;13.20;;;8.70;;
23388;SDS011;11867;51.198;11.966;2022-11-15T22:47:34;16.23;;;8.98;;
23388;SDS011;11867;51.198;11.966;2022-11-15T22:52:37;16.75;;;8.77;;
23388;SDS011;11867;51.198;11.966;2022-11-15T22:57:41;13.10;;;9.30;;
23388;SDS011;11867;51.198;11.966;2022-11-15T23:02:44;12.32;;;6.90;;
23388;SDS011;11867;51.198;11.966;2022-11-15T23:07:53;13.68;;;9.25;;
23388;SDS011;11867;51.198;11.966;2022-11-15T23:13:02;13.63;;;9.07;;
23388;SDS011;11867;51.198;11.966;2022-11-15T23:18:17;12.60;;;9.10;;
23388;SDS011;11867;51.198;11.966;2022-11-15T23:23:20;13.77;;;8.68;;
23388;SDS011;11867;51.198;11.966;2022-11-15T23:28:24;14.07;;;8.73;;
23388;SDS011;11867;51.198;11.966;2022-11-15T23:33:27;16.55;;;10.00;;
23388;SDS011;11867;51.198;11.966;2022-11-15T23:38:47;15.30;;;9.32;;
23388;SDS011;11867;51.198;11.966;2022-11-15T23:43:51;13.80;;;9.10;;
23388;SDS011;11867;51.198;11.966;2022-11-15T23:48:54;12.10;;;7.47;;
23388;SDS011;11867;51.198;11.966;2022-11-15T23:53:57;16.75;;;8.68;;
23388;SDS011;11867;51.198;11.966;2022-11-15T23:59:01;13.82;;;8.88;;
